sensor_id;sensor_type;location;lat;lon;timestamp;P1;durP1;ratioP1;P2;durP2;ratioP2
21472;SDS011;10898;48.072;11.682;2023-12-20T00:00:40;2.30;;;2.10;;
21472;SDS011;10898;48.072;11.682;2023-12-20T00:02:42;2.63;;;2.30;;
21472;SDS011;10898;48.072;11.682;2023-12-20T00:04:48;2.30;;;2.10;;
21472;SDS011;10898;48.072;11.682;2023-12-20T00:06:50;2.80;;;2.35;;
21472;SDS011;10898;48.072;11.682;2023-12-20T00:08:52;2.58;;;2.38;;
21472;SDS011;10898;48.072;11.682;2023-12-20T00:10:55;2.20;;;2.00;;
21472;SDS011;10898;48.072;11.682;2023-12-20T00:12:56;2.00;;;1.80;;
21472;SDS011;10898;48.072;11.682;2023-12-20T00:14:58;2.35;;;2.15;;
21472;SDS011;10898;48.072;11.682;2023-12-20T00:17:00;1.80;;;1.70;;
21472;SDS011;10898;48.072;11.682;2023-12-20T00:19:02;1.70;;;1.60;;
21472;SDS011;10898;48.072;11.682;2023-12-20T00:21:04;1.88;;;1.75;;
21472;SDS011;10898;48.072;11.682;2023-12-20T00:23:08;2.57;;;1.80;;
21472;SDS011;10898;48.072;11.682;2023-12-20T00:25:10;2.35;;;1.88;;
21472;SDS011;10898;48.072;11.682;2023-12-20T00:27:12;1.92;;;1.83;;
21472;SDS011;10898;48.072;11.682;2023-12-20T00:29:14;2.50;;;2.10;;
21472;SDS011;10898;48.072;11.682;2023-12-20T00:31:16;2.00;;;1.90;;
21472;SDS011;10898;48.072;11.682;2023-12-20T00:33:18;1.80;;;1.65;;
21472;SDS011;10898;48.072;11.682;2023-12-20T00:35:20;1.80;;;1.70;;
21472;SDS011;10898;48.072;11.682;2023-12-20T00:37:22;1.67;;;1.57;;
21472;SDS011;10898;48.072;11.682;2023-12-20T00:39:25;3.00;;;1.92;;
21472;SDS011;10898;48.072;11.682;2023-12-20T00:41:27;2.07;;;1.97;;
21472;SDS011;10898;48.072;11.682;2023-12-20T00:43:28;1.92;;;1.83;;
21472;SDS011;10898;48.072;11.682;2023-12-20T00:45:30;2.13;;;1.80;;
21472;SDS011;10898;48.072;11.682;2023-12-20T00:47:32;1.87;;;1.73;;
21472;SDS011;10898;48.072;11.682;2023-12-20T00:49:34;2.10;;;2.00;;
21472;SDS011;10898;48.072;11.682;2023-12-20T00:51:36;2.10;;;1.90;;
21472;SDS011;10898;48.072;11.682;2023-12-20T00:53:38;2.35;;;2.03;;
21472;SDS011;10898;48.072;11.682;2023-12-20T00:55:39;2.10;;;1.90;;
21472;SDS011;10898;48.072;11.682;2023-12-20T00:57:41;2.10;;;1.90;;
21472;SDS011;10898;48.072;11.682;2023-12-20T00:59:44;1.77;;;1.67;;
21472;SDS011;10898;48.072;11.682;2023-12-20T01:01:45;1.90;;;1.75;;
21472;SDS011;10898;48.072;11.682;2023-12-20T01:03:48;2.20;;;2.00;;
21472;SDS011;10898;48.072;11.682;2023-12-20T01:05:52;2.10;;;1.90;;
21472;SDS011;10898;48.072;11.682;2023-12-20T01:07:54;2.22;;;2.03;;
21472;SDS011;10898;48.072;11.682;2023-12-20T01:09:56;2.20;;;2.00;;
21472;SDS011;10898;48.072;11.682;2023-12-20T01:11:58;1.83;;;1.70;;
21472;SDS011;10898;48.072;11.682;2023-12-20T01:13:59;1.80;;;1.70;;
21472;SDS011;10898;48.072;11.682;2023-12-20T01:16:01;1.93;;;1.83;;
21472;SDS011;10898;48.072;11.682;2023-12-20T01:18:04;2.17;;;2.03;;
21472;SDS011;10898;48.072;11.682;2023-12-20T01:20:06;2.25;;;1.65;;
21472;SDS011;10898;48.072;11.682;2023-12-20T01:22:08;2.58;;;2.38;;
21472;SDS011;10898;48.072;11.682;2023-12-20T01:24:10;2.35;;;2.15;;
21472;SDS011;10898;48.072;11.682;2023-12-20T01:26:12;2.22;;;1.98;;
21472;SDS011;10898;48.072;11.682;2023-12-20T01:28:15;2.47;;;2.03;;
21472;SDS011;10898;48.072;11.682;2023-12-20T01:30:17;1.88;;;1.77;;
21472;SDS011;10898;48.072;11.682;2023-12-20T01:32:19;2.05;;;1.95;;
21472;SDS011;10898;48.072;11.682;2023-12-20T01:34:21;1.70;;;1.60;;
21472;SDS011;10898;48.072;11.682;2023-12-20T01:36:23;1.98;;;1.88;;
21472;SDS011;10898;48.072;11.682;2023-12-20T01:38:25;2.50;;;1.97;;
21472;SDS011;10898;48.072;11.682;2023-12-20T01:40:27;1.98;;;1.80;;
21472;SDS011;10898;48.072;11.682;2023-12-20T01:42:28;1.80;;;1.70;;
21472;SDS011;10898;48.072;11.682;2023-12-20T01:44:30;1.60;;;1.50;;
21472;SDS011;10898;48.072;11.682;2023-12-20T01:46:32;1.92;;;1.63;;
21472;SDS011;10898;48.072;11.682;2023-12-20T01:48:34;1.63;;;1.52;;
21472;SDS011;10898;48.072;11.682;2023-12-20T01:50:36;1.67;;;1.58;;
21472;SDS011;10898;48.072;11.682;2023-12-20T01:52:39;2.08;;;1.88;;
21472;SDS011;10898;48.072;11.682;2023-12-20T01:54:41;2.38;;;2.05;;
21472;SDS011;10898;48.072;11.682;2023-12-20T01:56:44;1.52;;;1.42;;
21472;SDS011;10898;48.072;11.682;2023-12-20T01:58:46;1.52;;;1.42;;
21472;SDS011;10898;48.072;11.682;2023-12-20T02:00:49;1.88;;;1.67;;
21472;SDS011;10898;48.072;11.682;2023-12-20T02:04:55;2.08;;;1.85;;
21472;SDS011;10898;48.072;11.682;2023-12-20T02:06:57;1.48;;;1.38;;
21472;SDS011;10898;48.072;11.682;2023-12-20T02:09:00;2.20;;;1.48;;
21472;SDS011;10898;48.072;11.682;2023-12-20T02:11:03;2.17;;;2.08;;
21472;SDS011;10898;48.072;11.682;2023-12-20T02:13:05;2.05;;;1.67;;
21472;SDS011;10898;48.072;11.682;2023-12-20T02:15:07;1.55;;;1.48;;
21472;SDS011;10898;48.072;11.682;2023-12-20T02:17:09;2.00;;;1.57;;
21472;SDS011;10898;48.072;11.682;2023-12-20T02:19:13;1.92;;;1.73;;
21472;SDS011;10898;48.072;11.682;2023-12-20T02:21:16;2.00;;;1.75;;
21472;SDS011;10898;48.072;11.682;2023-12-20T02:23:18;1.50;;;1.40;;
21472;SDS011;10898;48.072;11.682;2023-12-20T02:25:20;2.05;;;1.90;;
21472;SDS011;10898;48.072;11.682;2023-12-20T02:27:22;2.53;;;1.73;;
21472;SDS011;10898;48.072;11.682;2023-12-20T02:31:26;1.65;;;1.55;;
21472;SDS011;10898;48.072;11.682;2023-12-20T02:33:28;1.57;;;1.37;;
21472;SDS011;10898;48.072;11.682;2023-12-20T02:35:30;1.63;;;1.53;;
21472;SDS011;10898;48.072;11.682;2023-12-20T02:37:35;2.00;;;1.60;;
21472;SDS011;10898;48.072;11.682;2023-12-20T02:39:36;1.33;;;1.23;;
21472;SDS011;10898;48.072;11.682;2023-12-20T02:41:38;1.60;;;1.42;;
21472;SDS011;10898;48.072;11.682;2023-12-20T02:43:40;2.17;;;1.67;;
21472;SDS011;10898;48.072;11.682;2023-12-20T02:45:42;1.67;;;1.57;;
21472;SDS011;10898;48.072;11.682;2023-12-20T02:47:44;1.88;;;1.70;;
21472;SDS011;10898;48.072;11.682;2023-12-20T02:49:46;1.20;;;1.20;;
21472;SDS011;10898;48.072;11.682;2023-12-20T02:51:48;1.52;;;1.42;;
21472;SDS011;10898;48.072;11.682;2023-12-20T02:53:50;2.43;;;1.33;;
21472;SDS011;10898;48.072;11.682;2023-12-20T02:55:52;1.58;;;1.45;;
21472;SDS011;10898;48.072;11.682;2023-12-20T02:57:53;1.77;;;1.67;;
21472;SDS011;10898;48.072;11.682;2023-12-20T02:59:55;1.60;;;1.50;;
21472;SDS011;10898;48.072;11.682;2023-12-20T03:01:57;1.25;;;1.15;;
21472;SDS011;10898;48.072;11.682;2023-12-20T03:03:59;1.50;;;1.40;;
21472;SDS011;10898;48.072;11.682;2023-12-20T03:06:02;1.50;;;1.40;;
21472;SDS011;10898;48.072;11.682;2023-12-20T03:08:04;2.03;;;1.80;;
21472;SDS011;10898;48.072;11.682;2023-12-20T03:10:06;1.80;;;1.70;;
21472;SDS011;10898;48.072;11.682;2023-12-20T03:12:20;2.10;;;1.88;;
21472;SDS011;10898;48.072;11.682;2023-12-20T03:14:22;1.70;;;1.60;;
21472;SDS011;10898;48.072;11.682;2023-12-20T03:16:24;2.47;;;1.90;;
21472;SDS011;10898;48.072;11.682;2023-12-20T03:18:26;2.20;;;2.10;;
21472;SDS011;10898;48.072;11.682;2023-12-20T03:20:29;2.42;;;2.22;;
21472;SDS011;10898;48.072;11.682;2023-12-20T03:22:35;2.38;;;2.13;;
21472;SDS011;10898;48.072;11.682;2023-12-20T03:24:36;2.30;;;2.10;;
21472;SDS011;10898;48.072;11.682;2023-12-20T03:26:38;2.30;;;2.05;;
21472;SDS011;10898;48.072;11.682;2023-12-20T03:28:40;3.03;;;2.40;;
21472;SDS011;10898;48.072;11.682;2023-12-20T03:30:42;2.20;;;2.00;;
21472;SDS011;10898;48.072;11.682;2023-12-20T03:32:44;1.90;;;1.80;;
21472;SDS011;10898;48.072;11.682;2023-12-20T03:34:46;2.17;;;2.08;;
21472;SDS011;10898;48.072;11.682;2023-12-20T03:36:49;2.40;;;2.15;;
21472;SDS011;10898;48.072;11.682;2023-12-20T03:38:51;2.65;;;2.45;;
21472;SDS011;10898;48.072;11.682;2023-12-20T03:40:53;2.40;;;2.20;;
21472;SDS011;10898;48.072;11.682;2023-12-20T03:42:55;2.40;;;2.20;;
21472;SDS011;10898;48.072;11.682;2023-12-20T03:44:57;2.33;;;2.13;;
21472;SDS011;10898;48.072;11.682;2023-12-20T03:46:59;2.63;;;2.40;;
21472;SDS011;10898;48.072;11.682;2023-12-20T03:49:01;2.97;;;2.23;;
21472;SDS011;10898;48.072;11.682;2023-12-20T03:51:05;2.40;;;2.22;;
21472;SDS011;10898;48.072;11.682;2023-12-20T03:53:07;2.60;;;2.40;;
21472;SDS011;10898;48.072;11.682;2023-12-20T03:55:09;2.38;;;2.17;;
21472;SDS011;10898;48.072;11.682;2023-12-20T03:57:11;2.42;;;2.22;;
21472;SDS011;10898;48.072;11.682;2023-12-20T03:59:12;2.15;;;2.05;;
21472;SDS011;10898;48.072;11.682;2023-12-20T04:01:15;1.80;;;1.70;;
21472;SDS011;10898;48.072;11.682;2023-12-20T04:03:17;2.60;;;2.17;;
21472;SDS011;10898;48.072;11.682;2023-12-20T04:05:18;2.43;;;2.23;;
21472;SDS011;10898;48.072;11.682;2023-12-20T04:07:21;2.20;;;2.10;;
21472;SDS011;10898;48.072;11.682;2023-12-20T04:09:23;2.22;;;1.83;;
21472;SDS011;10898;48.072;11.682;2023-12-20T04:11:25;2.30;;;1.70;;
21472;SDS011;10898;48.072;11.682;2023-12-20T04:13:26;2.20;;;2.00;;
21472;SDS011;10898;48.072;11.682;2023-12-20T04:15:28;2.15;;;1.48;;
21472;SDS011;10898;48.072;11.682;2023-12-20T04:17:30;1.60;;;1.50;;
21472;SDS011;10898;48.072;11.682;2023-12-20T04:19:32;1.17;;;1.17;;
21472;SDS011;10898;48.072;11.682;2023-12-20T04:21:34;1.23;;;1.17;;
21472;SDS011;10898;48.072;11.682;2023-12-20T04:23:36;1.08;;;1.08;;
21472;SDS011;10898;48.072;11.682;2023-12-20T04:25:37;1.53;;;1.43;;
21472;SDS011;10898;48.072;11.682;2023-12-20T04:27:39;1.23;;;1.20;;
21472;SDS011;10898;48.072;11.682;2023-12-20T04:29:41;2.00;;;1.07;;
21472;SDS011;10898;48.072;11.682;2023-12-20T04:31:43;1.15;;;1.15;;
21472;SDS011;10898;48.072;11.682;2023-12-20T04:33:45;1.40;;;1.30;;
21472;SDS011;10898;48.072;11.682;2023-12-20T04:35:47;1.10;;;1.10;;
21472;SDS011;10898;48.072;11.682;2023-12-20T04:37:48;2.37;;;1.03;;
21472;SDS011;10898;48.072;11.682;2023-12-20T04:39:50;1.33;;;1.23;;
21472;SDS011;10898;48.072;11.682;2023-12-20T04:41:52;1.20;;;1.17;;
21472;SDS011;10898;48.072;11.682;2023-12-20T04:43:54;1.02;;;1.02;;
21472;SDS011;10898;48.072;11.682;2023-12-20T04:45:56;1.30;;;1.20;;
21472;SDS011;10898;48.072;11.682;2023-12-20T04:47:58;1.20;;;1.20;;
21472;SDS011;10898;48.072;11.682;2023-12-20T04:50:00;1.45;;;1.33;;
21472;SDS011;10898;48.072;11.682;2023-12-20T04:52:02;1.45;;;1.35;;
21472;SDS011;10898;48.072;11.682;2023-12-20T04:54:04;1.50;;;1.40;;
21472;SDS011;10898;48.072;11.682;2023-12-20T04:56:06;1.27;;;1.20;;
21472;SDS011;10898;48.072;11.682;2023-12-20T04:58:07;1.27;;;1.27;;
21472;SDS011;10898;48.072;11.682;2023-12-20T05:00:10;1.50;;;1.40;;
21472;SDS011;10898;48.072;11.682;2023-12-20T05:02:12;1.38;;;1.27;;
21472;SDS011;10898;48.072;11.682;2023-12-20T05:04:14;1.10;;;1.10;;
21472;SDS011;10898;48.072;11.682;2023-12-20T05:06:15;1.30;;;1.30;;
21472;SDS011;10898;48.072;11.682;2023-12-20T05:08:17;1.60;;;1.50;;
21472;SDS011;10898;48.072;11.682;2023-12-20T05:10:19;1.58;;;1.48;;
21472;SDS011;10898;48.072;11.682;2023-12-20T05:12:21;1.57;;;1.47;;
21472;SDS011;10898;48.072;11.682;2023-12-20T05:14:23;1.60;;;1.50;;
21472;SDS011;10898;48.072;11.682;2023-12-20T05:16:26;1.60;;;1.50;;
21472;SDS011;10898;48.072;11.682;2023-12-20T05:18:28;1.67;;;1.40;;
21472;SDS011;10898;48.072;11.682;2023-12-20T05:20:29;1.53;;;1.43;;
21472;SDS011;10898;48.072;11.682;2023-12-20T05:22:31;1.67;;;1.58;;
21472;SDS011;10898;48.072;11.682;2023-12-20T05:24:34;2.92;;;1.40;;
21472;SDS011;10898;48.072;11.682;2023-12-20T05:26:36;1.70;;;1.60;;
21472;SDS011;10898;48.072;11.682;2023-12-20T05:28:37;1.90;;;1.80;;
21472;SDS011;10898;48.072;11.682;2023-12-20T05:30:39;1.37;;;1.30;;
21472;SDS011;10898;48.072;11.682;2023-12-20T05:32:41;1.70;;;1.50;;
21472;SDS011;10898;48.072;11.682;2023-12-20T05:34:43;1.50;;;1.40;;
21472;SDS011;10898;48.072;11.682;2023-12-20T05:36:45;1.20;;;1.20;;
21472;SDS011;10898;48.072;11.682;2023-12-20T05:38:47;1.60;;;1.50;;
21472;SDS011;10898;48.072;11.682;2023-12-20T05:40:49;1.97;;;1.70;;
21472;SDS011;10898;48.072;11.682;2023-12-20T05:42:50;1.70;;;1.60;;
21472;SDS011;10898;48.072;11.682;2023-12-20T05:44:52;1.60;;;1.47;;
21472;SDS011;10898;48.072;11.682;2023-12-20T05:46:57;1.50;;;1.40;;
21472;SDS011;10898;48.072;11.682;2023-12-20T05:48:58;2.47;;;1.47;;
21472;SDS011;10898;48.072;11.682;2023-12-20T05:51:00;1.88;;;1.35;;
21472;SDS011;10898;48.072;11.682;2023-12-20T05:53:02;1.50;;;1.40;;
21472;SDS011;10898;48.072;11.682;2023-12-20T05:55:04;1.88;;;1.77;;
21472;SDS011;10898;48.072;11.682;2023-12-20T05:57:06;1.73;;;1.63;;
21472;SDS011;10898;48.072;11.682;2023-12-20T05:59:08;1.70;;;1.60;;
21472;SDS011;10898;48.072;11.682;2023-12-20T06:01:10;1.73;;;1.63;;
21472;SDS011;10898;48.072;11.682;2023-12-20T06:03:12;1.50;;;1.40;;
21472;SDS011;10898;48.072;11.682;2023-12-20T06:05:14;1.70;;;1.60;;
21472;SDS011;10898;48.072;11.682;2023-12-20T06:07:16;1.73;;;1.63;;
21472;SDS011;10898;48.072;11.682;2023-12-20T06:09:18;1.83;;;1.73;;
21472;SDS011;10898;48.072;11.682;2023-12-20T06:11:20;1.63;;;1.35;;
21472;SDS011;10898;48.072;11.682;2023-12-20T06:13:22;1.40;;;1.30;;
21472;SDS011;10898;48.072;11.682;2023-12-20T06:15:24;1.60;;;1.50;;
21472;SDS011;10898;48.072;11.682;2023-12-20T06:17:26;1.67;;;1.57;;
21472;SDS011;10898;48.072;11.682;2023-12-20T06:19:28;1.45;;;1.33;;
21472;SDS011;10898;48.072;11.682;2023-12-20T06:21:30;1.40;;;1.30;;
21472;SDS011;10898;48.072;11.682;2023-12-20T06:23:32;1.40;;;1.30;;
21472;SDS011;10898;48.072;11.682;2023-12-20T06:25:33;1.27;;;1.17;;
21472;SDS011;10898;48.072;11.682;2023-12-20T06:27:35;4.10;;;1.83;;
21472;SDS011;10898;48.072;11.682;2023-12-20T06:29:37;1.93;;;1.83;;
21472;SDS011;10898;48.072;11.682;2023-12-20T06:31:39;1.63;;;1.53;;
21472;SDS011;10898;48.072;11.682;2023-12-20T06:33:41;1.58;;;1.48;;
21472;SDS011;10898;48.072;11.682;2023-12-20T06:35:44;1.67;;;1.58;;
21472;SDS011;10898;48.072;11.682;2023-12-20T06:37:46;1.10;;;1.10;;
21472;SDS011;10898;48.072;11.682;2023-12-20T06:39:48;1.67;;;1.58;;
21472;SDS011;10898;48.072;11.682;2023-12-20T06:41:50;1.45;;;1.35;;
21472;SDS011;10898;48.072;11.682;2023-12-20T06:43:51;6.63;;;2.03;;
21472;SDS011;10898;48.072;11.682;2023-12-20T06:45:54;2.30;;;1.50;;
21472;SDS011;10898;48.072;11.682;2023-12-20T06:47:56;1.35;;;1.25;;
21472;SDS011;10898;48.072;11.682;2023-12-20T06:49:58;1.60;;;1.50;;
21472;SDS011;10898;48.072;11.682;2023-12-20T06:52:00;1.60;;;1.50;;
21472;SDS011;10898;48.072;11.682;2023-12-20T06:54:02;1.60;;;1.60;;
21472;SDS011;10898;48.072;11.682;2023-12-20T06:56:04;4.20;;;1.50;;
21472;SDS011;10898;48.072;11.682;2023-12-20T06:58:06;1.33;;;1.30;;
21472;SDS011;10898;48.072;11.682;2023-12-20T07:00:08;1.33;;;1.33;;
21472;SDS011;10898;48.072;11.682;2023-12-20T07:02:12;1.58;;;1.48;;
21472;SDS011;10898;48.072;11.682;2023-12-20T07:04:15;1.80;;;1.10;;
21472;SDS011;10898;48.072;11.682;2023-12-20T07:06:22;0.85;;;0.85;;
21472;SDS011;10898;48.072;11.682;2023-12-20T07:08:26;0.90;;;0.90;;
21472;SDS011;10898;48.072;11.682;2023-12-20T07:10:29;1.48;;;1.38;;
21472;SDS011;10898;48.072;11.682;2023-12-20T07:12:30;1.37;;;1.30;;
21472;SDS011;10898;48.072;11.682;2023-12-20T07:14:32;1.63;;;1.30;;
21472;SDS011;10898;48.072;11.682;2023-12-20T07:16:34;1.55;;;1.10;;
21472;SDS011;10898;48.072;11.682;2023-12-20T07:18:37;1.63;;;1.52;;
21472;SDS011;10898;48.072;11.682;2023-12-20T07:20:39;1.40;;;1.30;;
21472;SDS011;10898;48.072;11.682;2023-12-20T07:22:40;1.30;;;1.20;;
21472;SDS011;10898;48.072;11.682;2023-12-20T07:24:43;1.70;;;1.60;;
21472;SDS011;10898;48.072;11.682;2023-12-20T07:26:45;1.55;;;1.45;;
21472;SDS011;10898;48.072;11.682;2023-12-20T07:28:46;1.35;;;1.35;;
21472;SDS011;10898;48.072;11.682;2023-12-20T07:30:48;1.30;;;1.30;;
21472;SDS011;10898;48.072;11.682;2023-12-20T07:32:50;1.23;;;1.23;;
21472;SDS011;10898;48.072;11.682;2023-12-20T07:34:53;1.08;;;1.08;;
21472;SDS011;10898;48.072;11.682;2023-12-20T07:36:56;1.40;;;1.30;;
21472;SDS011;10898;48.072;11.682;2023-12-20T07:38:58;1.50;;;1.40;;
21472;SDS011;10898;48.072;11.682;2023-12-20T07:41:00;1.10;;;1.10;;
21472;SDS011;10898;48.072;11.682;2023-12-20T07:43:01;2.78;;;2.55;;
21472;SDS011;10898;48.072;11.682;2023-12-20T07:45:04;1.75;;;1.27;;
21472;SDS011;10898;48.072;11.682;2023-12-20T07:47:06;1.20;;;1.20;;
21472;SDS011;10898;48.072;11.682;2023-12-20T07:49:08;1.23;;;1.13;;
21472;SDS011;10898;48.072;11.682;2023-12-20T07:51:11;1.38;;;1.27;;
21472;SDS011;10898;48.072;11.682;2023-12-20T07:53:13;1.02;;;1.02;;
21472;SDS011;10898;48.072;11.682;2023-12-20T07:55:15;1.17;;;1.17;;
21472;SDS011;10898;48.072;11.682;2023-12-20T07:57:17;2.15;;;1.30;;
21472;SDS011;10898;48.072;11.682;2023-12-20T07:59:18;1.63;;;1.30;;
21472;SDS011;10898;48.072;11.682;2023-12-20T08:01:32;1.35;;;1.30;;
21472;SDS011;10898;48.072;11.682;2023-12-20T08:03:34;1.27;;;1.20;;
21472;SDS011;10898;48.072;11.682;2023-12-20T08:05:38;1.13;;;1.13;;
21472;SDS011;10898;48.072;11.682;2023-12-20T08:07:41;1.10;;;1.10;;
21472;SDS011;10898;48.072;11.682;2023-12-20T08:09:43;1.10;;;1.10;;
21472;SDS011;10898;48.072;11.682;2023-12-20T08:11:46;1.60;;;1.50;;
21472;SDS011;10898;48.072;11.682;2023-12-20T08:15:50;1.40;;;1.30;;
21472;SDS011;10898;48.072;11.682;2023-12-20T08:17:51;1.35;;;1.25;;
21472;SDS011;10898;48.072;11.682;2023-12-20T08:21:56;1.25;;;1.15;;
21472;SDS011;10898;48.072;11.682;2023-12-20T08:23:58;1.30;;;1.30;;
21472;SDS011;10898;48.072;11.682;2023-12-20T08:26:05;1.10;;;1.10;;
21472;SDS011;10898;48.072;11.682;2023-12-20T08:28:10;1.13;;;1.13;;
21472;SDS011;10898;48.072;11.682;2023-12-20T08:30:12;1.00;;;1.00;;
21472;SDS011;10898;48.072;11.682;2023-12-20T08:32:14;1.00;;;1.00;;
21472;SDS011;10898;48.072;11.682;2023-12-20T08:34:16;1.00;;;1.00;;
21472;SDS011;10898;48.072;11.682;2023-12-20T08:36:19;1.40;;;1.30;;
21472;SDS011;10898;48.072;11.682;2023-12-20T08:38:22;1.50;;;1.40;;
21472;SDS011;10898;48.072;11.682;2023-12-20T08:40:24;1.10;;;1.10;;
21472;SDS011;10898;48.072;11.682;2023-12-20T08:42:26;1.40;;;1.10;;
21472;SDS011;10898;48.072;11.682;2023-12-20T08:44:32;1.33;;;1.23;;
21472;SDS011;10898;48.072;11.682;2023-12-20T08:46:34;0.90;;;0.90;;
21472;SDS011;10898;48.072;11.682;2023-12-20T08:48:36;1.20;;;1.20;;
21472;SDS011;10898;48.072;11.682;2023-12-20T08:50:39;1.20;;;1.20;;
21472;SDS011;10898;48.072;11.682;2023-12-20T08:52:41;1.15;;;1.15;;
21472;SDS011;10898;48.072;11.682;2023-12-20T08:54:43;1.08;;;1.08;;
21472;SDS011;10898;48.072;11.682;2023-12-20T08:56:45;1.05;;;1.05;;
21472;SDS011;10898;48.072;11.682;2023-12-20T08:58:47;1.20;;;1.10;;
21472;SDS011;10898;48.072;11.682;2023-12-20T09:00:49;1.15;;;1.15;;
21472;SDS011;10898;48.072;11.682;2023-12-20T09:02:51;1.00;;;1.00;;
21472;SDS011;10898;48.072;11.682;2023-12-20T09:04:53;1.17;;;1.17;;
21472;SDS011;10898;48.072;11.682;2023-12-20T09:06:55;1.20;;;1.20;;
21472;SDS011;10898;48.072;11.682;2023-12-20T09:08:57;2.22;;;1.17;;
21472;SDS011;10898;48.072;11.682;2023-12-20T09:10:59;1.08;;;1.08;;
21472;SDS011;10898;48.072;11.682;2023-12-20T09:13:02;0.98;;;0.98;;
21472;SDS011;10898;48.072;11.682;2023-12-20T09:15:05;1.30;;;1.20;;
21472;SDS011;10898;48.072;11.682;2023-12-20T09:17:07;2.03;;;1.33;;
21472;SDS011;10898;48.072;11.682;2023-12-20T09:19:10;1.65;;;1.55;;
21472;SDS011;10898;48.072;11.682;2023-12-20T09:21:12;1.50;;;1.40;;
21472;SDS011;10898;48.072;11.682;2023-12-20T09:23:14;1.30;;;1.20;;
21472;SDS011;10898;48.072;11.682;2023-12-20T09:25:15;1.65;;;1.00;;
21472;SDS011;10898;48.072;11.682;2023-12-20T09:27:19;1.77;;;1.15;;
21472;SDS011;10898;48.072;11.682;2023-12-20T09:29:21;1.38;;;1.38;;
21472;SDS011;10898;48.072;11.682;2023-12-20T09:31:22;1.10;;;1.10;;
21472;SDS011;10898;48.072;11.682;2023-12-20T09:33:24;1.48;;;1.38;;
21472;SDS011;10898;48.072;11.682;2023-12-20T09:35:26;1.17;;;1.17;;
21472;SDS011;10898;48.072;11.682;2023-12-20T09:37:29;1.00;;;1.00;;
21472;SDS011;10898;48.072;11.682;2023-12-20T09:39:31;0.90;;;0.90;;
21472;SDS011;10898;48.072;11.682;2023-12-20T09:41:34;1.13;;;1.13;;
21472;SDS011;10898;48.072;11.682;2023-12-20T09:43:44;1.20;;;1.20;;
21472;SDS011;10898;48.072;11.682;2023-12-20T09:45:46;1.00;;;1.00;;
21472;SDS011;10898;48.072;11.682;2023-12-20T09:47:52;0.80;;;0.80;;
21472;SDS011;10898;48.072;11.682;2023-12-20T09:49:55;1.30;;;1.10;;
21472;SDS011;10898;48.072;11.682;2023-12-20T09:51:58;1.30;;;1.30;;
21472;SDS011;10898;48.072;11.682;2023-12-20T09:54:03;1.35;;;1.25;;
21472;SDS011;10898;48.072;11.682;2023-12-20T09:56:05;1.60;;;1.20;;
21472;SDS011;10898;48.072;11.682;2023-12-20T09:58:08;1.13;;;1.13;;
21472;SDS011;10898;48.072;11.682;2023-12-20T10:00:10;0.95;;;0.95;;
21472;SDS011;10898;48.072;11.682;2023-12-20T10:04:18;1.38;;;1.27;;
21472;SDS011;10898;48.072;11.682;2023-12-20T10:06:30;1.00;;;1.00;;
21472;SDS011;10898;48.072;11.682;2023-12-20T10:08:32;1.50;;;1.40;;
21472;SDS011;10898;48.072;11.682;2023-12-20T10:10:34;1.33;;;1.23;;
21472;SDS011;10898;48.072;11.682;2023-12-20T10:15:08;1.23;;;1.23;;
21472;SDS011;10898;48.072;11.682;2023-12-20T10:17:11;1.25;;;1.25;;
21472;SDS011;10898;48.072;11.682;2023-12-20T10:19:15;1.27;;;1.17;;
21472;SDS011;10898;48.072;11.682;2023-12-20T10:21:19;1.38;;;1.10;;
21472;SDS011;10898;48.072;11.682;2023-12-20T10:23:21;1.77;;;1.30;;
21472;SDS011;10898;48.072;11.682;2023-12-20T10:27:26;2.40;;;1.37;;
21472;SDS011;10898;48.072;11.682;2023-12-20T10:29:30;1.25;;;1.25;;
21472;SDS011;10898;48.072;11.682;2023-12-20T10:31:39;1.20;;;1.10;;
21472;SDS011;10898;48.072;11.682;2023-12-20T10:33:41;1.20;;;1.20;;
21472;SDS011;10898;48.072;11.682;2023-12-20T10:35:43;1.10;;;1.10;;
21472;SDS011;10898;48.072;11.682;2023-12-20T10:37:48;1.10;;;1.10;;
21472;SDS011;10898;48.072;11.682;2023-12-20T10:39:51;1.60;;;1.30;;
21472;SDS011;10898;48.072;11.682;2023-12-20T10:41:58;1.38;;;1.35;;
21472;SDS011;10898;48.072;11.682;2023-12-20T10:44:00;1.10;;;1.10;;
21472;SDS011;10898;48.072;11.682;2023-12-20T10:46:04;1.08;;;1.08;;
21472;SDS011;10898;48.072;11.682;2023-12-20T10:48:07;1.27;;;1.23;;
21472;SDS011;10898;48.072;11.682;2023-12-20T10:50:13;1.33;;;1.23;;
21472;SDS011;10898;48.072;11.682;2023-12-20T10:52:16;1.10;;;1.10;;
21472;SDS011;10898;48.072;11.682;2023-12-20T10:54:19;1.25;;;1.25;;
21472;SDS011;10898;48.072;11.682;2023-12-20T10:56:21;1.50;;;1.40;;
21472;SDS011;10898;48.072;11.682;2023-12-20T10:58:24;2.03;;;1.20;;
21472;SDS011;10898;48.072;11.682;2023-12-20T11:00:30;1.13;;;1.10;;
21472;SDS011;10898;48.072;11.682;2023-12-20T11:02:33;1.55;;;1.20;;
21472;SDS011;10898;48.072;11.682;2023-12-20T11:06:53;1.10;;;1.10;;
21472;SDS011;10898;48.072;11.682;2023-12-20T11:09:04;1.00;;;1.00;;
21472;SDS011;10898;48.072;11.682;2023-12-20T11:11:33;1.08;;;0.90;;
21472;SDS011;10898;48.072;11.682;2023-12-20T11:13:57;1.15;;;1.15;;
21472;SDS011;10898;48.072;11.682;2023-12-20T11:16:12;1.40;;;1.30;;
21472;SDS011;10898;48.072;11.682;2023-12-20T11:18:15;1.70;;;1.60;;
21472;SDS011;10898;48.072;11.682;2023-12-20T11:20:17;1.33;;;1.33;;
21472;SDS011;10898;48.072;11.682;2023-12-20T11:22:24;1.48;;;1.40;;
21472;SDS011;10898;48.072;11.682;2023-12-20T11:24:26;1.40;;;1.30;;
21472;SDS011;10898;48.072;11.682;2023-12-20T11:26:28;1.03;;;1.03;;
21472;SDS011;10898;48.072;11.682;2023-12-20T11:28:31;1.10;;;1.10;;
21472;SDS011;10898;48.072;11.682;2023-12-20T11:30:45;2.35;;;2.15;;
21472;SDS011;10898;48.072;11.682;2023-12-20T11:32:49;2.03;;;1.90;;
21472;SDS011;10898;48.072;11.682;2023-12-20T11:34:51;1.38;;;1.27;;
21472;SDS011;10898;48.072;11.682;2023-12-20T11:36:58;1.50;;;1.40;;
21472;SDS011;10898;48.072;11.682;2023-12-20T11:39:01;1.35;;;1.27;;
21472;SDS011;10898;48.072;11.682;2023-12-20T11:41:12;1.77;;;1.67;;
21472;SDS011;10898;48.072;11.682;2023-12-20T11:45:42;1.52;;;1.42;;
21472;SDS011;10898;48.072;11.682;2023-12-20T11:47:52;2.03;;;1.92;;
21472;SDS011;10898;48.072;11.682;2023-12-20T11:49:56;1.80;;;1.70;;
21472;SDS011;10898;48.072;11.682;2023-12-20T11:51:58;1.70;;;1.60;;
21472;SDS011;10898;48.072;11.682;2023-12-20T11:54:01;1.67;;;1.58;;
21472;SDS011;10898;48.072;11.682;2023-12-20T11:56:04;1.27;;;1.27;;
21472;SDS011;10898;48.072;11.682;2023-12-20T11:58:07;1.50;;;1.40;;
21472;SDS011;10898;48.072;11.682;2023-12-20T12:00:10;1.88;;;1.33;;
21472;SDS011;10898;48.072;11.682;2023-12-20T12:02:12;3.22;;;1.42;;
21472;SDS011;10898;48.072;11.682;2023-12-20T12:04:14;1.30;;;1.25;;
21472;SDS011;10898;48.072;11.682;2023-12-20T12:06:18;1.45;;;1.38;;
21472;SDS011;10898;48.072;11.682;2023-12-20T12:08:20;1.43;;;1.43;;
21472;SDS011;10898;48.072;11.682;2023-12-20T12:10:22;1.30;;;1.20;;
21472;SDS011;10898;48.072;11.682;2023-12-20T12:12:24;1.60;;;1.50;;
21472;SDS011;10898;48.072;11.682;2023-12-20T12:14:30;1.38;;;1.30;;
21472;SDS011;10898;48.072;11.682;2023-12-20T12:16:32;1.70;;;1.60;;
21472;SDS011;10898;48.072;11.682;2023-12-20T12:18:34;1.38;;;1.30;;
21472;SDS011;10898;48.072;11.682;2023-12-20T12:20:36;1.60;;;1.50;;
21472;SDS011;10898;48.072;11.682;2023-12-20T12:22:39;1.15;;;1.15;;
21472;SDS011;10898;48.072;11.682;2023-12-20T12:24:44;1.52;;;1.42;;
21472;SDS011;10898;48.072;11.682;2023-12-20T12:26:56;1.33;;;1.23;;